sensor_id;sensor_type;location;lat;lon;timestamp;P1;durP1;ratioP1;P2;durP2;ratioP2
13366;SDS011;6752;52.612;13.630;2023-12-20T00:04:13;5.93;;;5.33;;
13366;SDS011;6752;52.612;13.630;2023-12-20T00:09:16;6.00;;;5.40;;
13366;SDS011;6752;52.612;13.630;2023-12-20T00:14:18;6.10;;;5.50;;
13366;SDS011;6752;52.612;13.630;2023-12-20T00:19:20;6.17;;;5.57;;
13366;SDS011;6752;52.612;13.630;2023-12-20T00:24:23;6.33;;;5.63;;
13366;SDS011;6752;52.612;13.630;2023-12-20T00:29:25;5.97;;;5.37;;
13366;SDS011;6752;52.612;13.630;2023-12-20T00:34:27;7.23;;;6.40;;
13366;SDS011;6752;52.612;13.630;2023-12-20T00:39:30;6.03;;;5.43;;
13366;SDS011;6752;52.612;13.630;2023-12-20T00:44:32;6.27;;;5.67;;
13366;SDS011;6752;52.612;13.630;2023-12-20T00:49:34;6.77;;;6.07;;
13366;SDS011;6752;52.612;13.630;2023-12-20T00:54:37;6.13;;;5.53;;
13366;SDS011;6752;52.612;13.630;2023-12-20T00:59:39;5.43;;;4.93;;
13366;SDS011;6752;52.612;13.630;2023-12-20T01:04:43;6.27;;;5.50;;
13366;SDS011;6752;52.612;13.630;2023-12-20T01:09:46;6.47;;;5.87;;
13366;SDS011;6752;52.612;13.630;2023-12-20T01:14:48;6.33;;;5.70;;
13366;SDS011;6752;52.612;13.630;2023-12-20T01:19:50;6.03;;;5.40;;
13366;SDS011;6752;52.612;13.630;2023-12-20T01:24:53;6.90;;;6.30;;
13366;SDS011;6752;52.612;13.630;2023-12-20T01:29:55;6.43;;;5.63;;
13366;SDS011;6752;52.612;13.630;2023-12-20T01:34:58;6.83;;;6.07;;
13366;SDS011;6752;52.612;13.630;2023-12-20T01:40:00;7.43;;;6.72;;
13366;SDS011;6752;52.612;13.630;2023-12-20T01:45:02;5.70;;;5.20;;
13366;SDS011;6752;52.612;13.630;2023-12-20T01:50:05;5.10;;;4.60;;
13366;SDS011;6752;52.612;13.630;2023-12-20T01:55:07;4.90;;;4.50;;
13366;SDS011;6752;52.612;13.630;2023-12-20T02:00:10;4.17;;;3.77;;
13366;SDS011;6752;52.612;13.630;2023-12-20T02:05:12;4.65;;;4.25;;
13366;SDS011;6752;52.612;13.630;2023-12-20T02:10:15;4.40;;;4.00;;
13366;SDS011;6752;52.612;13.630;2023-12-20T02:15:17;4.70;;;3.93;;
13366;SDS011;6752;52.612;13.630;2023-12-20T02:20:19;4.57;;;4.17;;
13366;SDS011;6752;52.612;13.630;2023-12-20T02:25:21;5.03;;;4.23;;
13366;SDS011;6752;52.612;13.630;2023-12-20T02:30:24;4.93;;;4.33;;
13366;SDS011;6752;52.612;13.630;2023-12-20T02:35:26;5.13;;;4.40;;
13366;SDS011;6752;52.612;13.630;2023-12-20T02:40:28;5.40;;;4.43;;
13366;SDS011;6752;52.612;13.630;2023-12-20T02:45:31;5.43;;;3.90;;
13366;SDS011;6752;52.612;13.630;2023-12-20T02:50:33;4.87;;;4.33;;
13366;SDS011;6752;52.612;13.630;2023-12-20T02:55:35;5.97;;;4.37;;
13366;SDS011;6752;52.612;13.630;2023-12-20T03:00:38;5.57;;;4.27;;
13366;SDS011;6752;52.612;13.630;2023-12-20T03:05:40;6.43;;;4.27;;
13366;SDS011;6752;52.612;13.630;2023-12-20T03:10:42;5.03;;;3.60;;
13366;SDS011;6752;52.612;13.630;2023-12-20T03:15:45;4.77;;;3.60;;
13366;SDS011;6752;52.612;13.630;2023-12-20T03:20:47;5.80;;;3.43;;
13366;SDS011;6752;52.612;13.630;2023-12-20T03:25:50;4.80;;;3.43;;
13366;SDS011;6752;52.612;13.630;2023-12-20T03:30:52;5.63;;;3.33;;
13366;SDS011;6752;52.612;13.630;2023-12-20T03:35:54;5.60;;;3.17;;
13366;SDS011;6752;52.612;13.630;2023-12-20T03:40:57;7.93;;;2.90;;
13366;SDS011;6752;52.612;13.630;2023-12-20T03:45:59;4.50;;;2.30;;
13366;SDS011;6752;52.612;13.630;2023-12-20T03:51:01;7.10;;;3.23;;
13366;SDS011;6752;52.612;13.630;2023-12-20T03:56:04;5.50;;;2.70;;
13366;SDS011;6752;52.612;13.630;2023-12-20T04:01:09;6.87;;;2.87;;
13366;SDS011;6752;52.612;13.630;2023-12-20T04:06:16;7.20;;;2.90;;
13366;SDS011;6752;52.612;13.630;2023-12-20T04:11:14;5.63;;;2.83;;
13366;SDS011;6752;52.612;13.630;2023-12-20T04:16:16;6.63;;;2.63;;
13366;SDS011;6752;52.612;13.630;2023-12-20T04:21:18;5.23;;;2.70;;
13366;SDS011;6752;52.612;13.630;2023-12-20T04:26:21;9.33;;;3.17;;
13366;SDS011;6752;52.612;13.630;2023-12-20T04:31:23;8.07;;;2.83;;
13366;SDS011;6752;52.612;13.630;2023-12-20T04:36:25;6.23;;;2.80;;
13366;SDS011;6752;52.612;13.630;2023-12-20T04:41:28;9.23;;;2.90;;
13366;SDS011;6752;52.612;13.630;2023-12-20T04:46:30;7.07;;;2.90;;
13366;SDS011;6752;52.612;13.630;2023-12-20T04:51:33;6.07;;;2.50;;
13366;SDS011;6752;52.612;13.630;2023-12-20T04:56:35;5.67;;;2.20;;
13366;SDS011;6752;52.612;13.630;2023-12-20T05:01:37;4.93;;;1.97;;
13366;SDS011;6752;52.612;13.630;2023-12-20T05:06:40;9.33;;;2.10;;
13366;SDS011;6752;52.612;13.630;2023-12-20T05:11:42;9.90;;;5.77;;
13366;SDS011;6752;52.612;13.630;2023-12-20T05:16:44;9.17;;;2.60;;
13366;SDS011;6752;52.612;13.630;2023-12-20T05:21:47;7.50;;;2.50;;
13366;SDS011;6752;52.612;13.630;2023-12-20T05:26:49;8.63;;;2.40;;
13366;SDS011;6752;52.612;13.630;2023-12-20T05:31:51;7.13;;;2.30;;
13366;SDS011;6752;52.612;13.630;2023-12-20T05:36:54;7.73;;;2.43;;
13366;SDS011;6752;52.612;13.630;2023-12-20T05:41:56;7.90;;;2.27;;
13366;SDS011;6752;52.612;13.630;2023-12-20T05:46:58;6.00;;;2.13;;
13366;SDS011;6752;52.612;13.630;2023-12-20T05:52:01;8.95;;;2.87;;
13366;SDS011;6752;52.612;13.630;2023-12-20T05:57:03;4.33;;;2.23;;
13366;SDS011;6752;52.612;13.630;2023-12-20T06:02:06;8.97;;;2.83;;
13366;SDS011;6752;52.612;13.630;2023-12-20T06:07:08;7.37;;;2.43;;
13366;SDS011;6752;52.612;13.630;2023-12-20T06:12:13;9.90;;;2.33;;
13366;SDS011;6752;52.612;13.630;2023-12-20T06:17:16;5.87;;;2.10;;
13366;SDS011;6752;52.612;13.630;2023-12-20T06:22:18;6.83;;;2.10;;
13366;SDS011;6752;52.612;13.630;2023-12-20T06:27:20;7.97;;;2.40;;
13366;SDS011;6752;52.612;13.630;2023-12-20T06:32:23;5.67;;;1.97;;
13366;SDS011;6752;52.612;13.630;2023-12-20T06:37:25;7.77;;;2.10;;
13366;SDS011;6752;52.612;13.630;2023-12-20T06:42:27;8.87;;;1.90;;
13366;SDS011;6752;52.612;13.630;2023-12-20T06:47:30;9.43;;;2.60;;
13366;SDS011;6752;52.612;13.630;2023-12-20T06:52:32;7.37;;;2.90;;
13366;SDS011;6752;52.612;13.630;2023-12-20T06:57:34;8.33;;;2.67;;
13366;SDS011;6752;52.612;13.630;2023-12-20T07:02:37;7.17;;;2.13;;
13366;SDS011;6752;52.612;13.630;2023-12-20T07:07:39;8.13;;;2.70;;
13366;SDS011;6752;52.612;13.630;2023-12-20T07:12:42;7.07;;;2.63;;
13366;SDS011;6752;52.612;13.630;2023-12-20T07:17:44;8.90;;;2.47;;
13366;SDS011;6752;52.612;13.630;2023-12-20T07:22:46;6.67;;;2.33;;
13366;SDS011;6752;52.612;13.630;2023-12-20T07:27:49;6.53;;;2.60;;
13366;SDS011;6752;52.612;13.630;2023-12-20T07:32:51;8.37;;;2.73;;
13366;SDS011;6752;52.612;13.630;2023-12-20T07:37:53;7.75;;;2.83;;
13366;SDS011;6752;52.612;13.630;2023-12-20T07:42:56;8.20;;;3.00;;
13366;SDS011;6752;52.612;13.630;2023-12-20T07:47:58;6.50;;;2.40;;
13366;SDS011;6752;52.612;13.630;2023-12-20T07:53:01;9.53;;;3.10;;
13366;SDS011;6752;52.612;13.630;2023-12-20T07:58:03;7.17;;;2.60;;
13366;SDS011;6752;52.612;13.630;2023-12-20T08:03:05;7.00;;;2.90;;
13366;SDS011;6752;52.612;13.630;2023-12-20T08:08:10;7.63;;;2.70;;
13366;SDS011;6752;52.612;13.630;2023-12-20T08:13:17;7.43;;;2.40;;
13366;SDS011;6752;52.612;13.630;2023-12-20T08:18:15;7.00;;;2.67;;
13366;SDS011;6752;52.612;13.630;2023-12-20T08:23:17;8.07;;;2.43;;
13366;SDS011;6752;52.612;13.630;2023-12-20T08:28:20;10.53;;;2.43;;
13366;SDS011;6752;52.612;13.630;2023-12-20T08:33:22;10.40;;;2.90;;
13366;SDS011;6752;52.612;13.630;2023-12-20T08:38:24;27.53;;;5.93;;
13366;SDS011;6752;52.612;13.630;2023-12-20T08:43:27;9.97;;;3.03;;
13366;SDS011;6752;52.612;13.630;2023-12-20T08:48:29;10.80;;;2.80;;
13366;SDS011;6752;52.612;13.630;2023-12-20T08:53:31;10.23;;;2.87;;
13366;SDS011;6752;52.612;13.630;2023-12-20T08:58:34;37.08;;;9.52;;
13366;SDS011;6752;52.612;13.630;2023-12-20T09:03:36;8.27;;;2.60;;
13366;SDS011;6752;52.612;13.630;2023-12-20T09:08:38;8.20;;;2.40;;
13366;SDS011;6752;52.612;13.630;2023-12-20T09:13:41;9.37;;;2.63;;
13366;SDS011;6752;52.612;13.630;2023-12-20T09:18:43;35.00;;;8.18;;
13366;SDS011;6752;52.612;13.630;2023-12-20T09:23:46;56.97;;;10.33;;
13366;SDS011;6752;52.612;13.630;2023-12-20T09:28:48;6.33;;;2.10;;
13366;SDS011;6752;52.612;13.630;2023-12-20T09:33:50;14.80;;;3.77;;
13366;SDS011;6752;52.612;13.630;2023-12-20T09:38:53;7.33;;;2.70;;
13366;SDS011;6752;52.612;13.630;2023-12-20T09:43:55;10.97;;;2.63;;
13366;SDS011;6752;52.612;13.630;2023-12-20T09:48:58;34.13;;;6.87;;
13366;SDS011;6752;52.612;13.630;2023-12-20T09:54:00;9.13;;;2.70;;
13366;SDS011;6752;52.612;13.630;2023-12-20T09:59:02;7.33;;;2.20;;
13366;SDS011;6752;52.612;13.630;2023-12-20T10:04:05;8.13;;;2.63;;
13366;SDS011;6752;52.612;13.630;2023-12-20T10:09:07;19.53;;;4.77;;
13366;SDS011;6752;52.612;13.630;2023-12-20T10:14:10;28.03;;;5.33;;
13366;SDS011;6752;52.612;13.630;2023-12-20T10:19:11;7.80;;;2.67;;
13366;SDS011;6752;52.612;13.630;2023-12-20T10:24:17;7.30;;;2.77;;
13366;SDS011;6752;52.612;13.630;2023-12-20T10:29:19;40.33;;;7.73;;
13366;SDS011;6752;52.612;13.630;2023-12-20T10:34:21;15.83;;;4.27;;
13366;SDS011;6752;52.612;13.630;2023-12-20T10:39:24;20.80;;;4.70;;
13366;SDS011;6752;52.612;13.630;2023-12-20T10:44:26;23.80;;;4.57;;
13366;SDS011;6752;52.612;13.630;2023-12-20T10:49:29;10.07;;;3.73;;
13366;SDS011;6752;52.612;13.630;2023-12-20T10:54:31;11.63;;;3.80;;
13366;SDS011;6752;52.612;13.630;2023-12-20T10:59:33;9.80;;;2.93;;
13366;SDS011;6752;52.612;13.630;2023-12-20T11:04:37;7.80;;;3.00;;
13366;SDS011;6752;52.612;13.630;2023-12-20T11:09:41;8.53;;;2.83;;
13366;SDS011;6752;52.612;13.630;2023-12-20T11:14:46;6.90;;;2.93;;
13366;SDS011;6752;52.612;13.630;2023-12-20T11:25:03;7.53;;;2.53;;
13366;SDS011;6752;52.612;13.630;2023-12-20T11:30:05;7.97;;;2.67;;
13366;SDS011;6752;52.612;13.630;2023-12-20T11:40:11;6.80;;;2.50;;
13366;SDS011;6752;52.612;13.630;2023-12-20T11:45:14;9.03;;;3.10;;
13366;SDS011;6752;52.612;13.630;2023-12-20T11:50:18;10.97;;;3.13;;
13366;SDS011;6752;52.612;13.630;2023-12-20T11:55:21;8.83;;;2.63;;
13366;SDS011;6752;52.612;13.630;2023-12-20T12:00:24;8.07;;;3.13;;
13366;SDS011;6752;52.612;13.630;2023-12-20T12:05:25;11.57;;;3.53;;
13366;SDS011;6752;52.612;13.630;2023-12-20T12:10:31;8.00;;;2.40;;
13366;SDS011;6752;52.612;13.630;2023-12-20T12:15:33;8.27;;;2.80;;
13366;SDS011;6752;52.612;13.630;2023-12-20T12:20:35;8.67;;;2.90;;
13366;SDS011;6752;52.612;13.630;2023-12-20T12:25:37;11.63;;;3.13;;
13366;SDS011;6752;52.612;13.630;2023-12-20T12:30:40;7.27;;;3.07;;
13366;SDS011;6752;52.612;13.630;2023-12-20T12:35:42;7.67;;;2.60;;
13366;SDS011;6752;52.612;13.630;2023-12-20T12:40:49;7.43;;;2.47;;
13366;SDS011;6752;52.612;13.630;2023-12-20T12:45:52;6.50;;;3.03;;
13366;SDS011;6752;52.612;13.630;2023-12-20T12:50:54;6.67;;;2.67;;
13366;SDS011;6752;52.612;13.630;2023-12-20T12:55:56;6.97;;;3.08;;
13366;SDS011;6752;52.612;13.630;2023-12-20T13:00:59;6.23;;;2.73;;
13366;SDS011;6752;52.612;13.630;2023-12-20T13:06:01;10.23;;;2.90;;
13366;SDS011;6752;52.612;13.630;2023-12-20T13:11:04;6.97;;;3.03;;
13366;SDS011;6752;52.612;13.630;2023-12-20T13:16:07;9.37;;;3.40;;
13366;SDS011;6752;52.612;13.630;2023-12-20T13:21:09;8.50;;;2.90;;
13366;SDS011;6752;52.612;13.630;2023-12-20T13:26:12;9.80;;;2.80;;
13366;SDS011;6752;52.612;13.630;2023-12-20T13:31:14;4.33;;;1.30;;
13366;SDS011;6752;52.612;13.630;2023-12-20T13:36:17;1.97;;;1.10;;
13366;SDS011;6752;52.612;13.630;2023-12-20T13:41:20;2.27;;;0.90;;
13366;SDS011;6752;52.612;13.630;2023-12-20T13:46:22;3.50;;;1.37;;
13366;SDS011;6752;52.612;13.630;2023-12-20T13:51:24;3.73;;;1.80;;
13366;SDS011;6752;52.612;13.630;2023-12-20T13:56:27;4.03;;;2.10;;
13366;SDS011;6752;52.612;13.630;2023-12-20T14:01:29;4.67;;;1.80;;
13366;SDS011;6752;52.612;13.630;2023-12-20T14:06:31;4.28;;;1.62;;
13366;SDS011;6752;52.612;13.630;2023-12-20T14:11:34;5.73;;;1.60;;
13366;SDS011;6752;52.612;13.630;2023-12-20T14:16:36;1.90;;;1.10;;
13366;SDS011;6752;52.612;13.630;2023-12-20T14:21:38;3.77;;;1.37;;
13366;SDS011;6752;52.612;13.630;2023-12-20T14:26:41;2.57;;;1.20;;
13366;SDS011;6752;52.612;13.630;2023-12-20T14:31:43;5.63;;;1.20;;
13366;SDS011;6752;52.612;13.630;2023-12-20T14:36:45;2.57;;;0.80;;
13366;SDS011;6752;52.612;13.630;2023-12-20T14:41:48;3.50;;;0.90;;
13366;SDS011;6752;52.612;13.630;2023-12-20T14:46:50;4.17;;;0.77;;
13366;SDS011;6752;52.612;13.630;2023-12-20T14:51:53;1.37;;;0.70;;
13366;SDS011;6752;52.612;13.630;2023-12-20T14:56:58;3.20;;;0.70;;
13366;SDS011;6752;52.612;13.630;2023-12-20T15:02:00;2.57;;;0.70;;
13366;SDS011;6752;52.612;13.630;2023-12-20T15:07:02;3.07;;;0.80;;
13366;SDS011;6752;52.612;13.630;2023-12-20T15:12:05;2.30;;;0.90;;
13366;SDS011;6752;52.612;13.630;2023-12-20T15:17:07;2.50;;;1.00;;
13366;SDS011;6752;52.612;13.630;2023-12-20T15:22:09;4.53;;;1.10;;
13366;SDS011;6752;52.612;13.630;2023-12-20T15:27:12;2.63;;;1.00;;
13366;SDS011;6752;52.612;13.630;2023-12-20T15:32:19;3.80;;;1.03;;
13366;SDS011;6752;52.612;13.630;2023-12-20T15:37:21;4.67;;;1.10;;
13366;SDS011;6752;52.612;13.630;2023-12-20T15:42:24;4.10;;;1.20;;
13366;SDS011;6752;52.612;13.630;2023-12-20T15:47:26;4.40;;;1.40;;
13366;SDS011;6752;52.612;13.630;2023-12-20T15:52:28;3.07;;;1.43;;
13366;SDS011;6752;52.612;13.630;2023-12-20T15:57:31;4.03;;;1.27;;
13366;SDS011;6752;52.612;13.630;2023-12-20T16:02:33;3.47;;;1.07;;
13366;SDS011;6752;52.612;13.630;2023-12-20T16:07:35;3.77;;;1.10;;
13366;SDS011;6752;52.612;13.630;2023-12-20T16:12:39;4.43;;;1.53;;
13366;SDS011;6752;52.612;13.630;2023-12-20T16:17:41;3.80;;;1.37;;
13366;SDS011;6752;52.612;13.630;2023-12-20T16:22:43;5.37;;;1.53;;
13366;SDS011;6752;52.612;13.630;2023-12-20T16:27:46;7.10;;;2.57;;
13366;SDS011;6752;52.612;13.630;2023-12-20T16:32:48;7.03;;;3.20;;
13366;SDS011;6752;52.612;13.630;2023-12-20T16:37:50;4.23;;;1.63;;
13366;SDS011;6752;52.612;13.630;2023-12-20T16:42:53;7.40;;;2.43;;
13366;SDS011;6752;52.612;13.630;2023-12-20T16:47:55;5.53;;;1.73;;
13366;SDS011;6752;52.612;13.630;2023-12-20T16:53:05;6.30;;;1.87;;
13366;SDS011;6752;52.612;13.630;2023-12-20T16:58:08;4.80;;;1.87;;
13366;SDS011;6752;52.612;13.630;2023-12-20T17:03:10;6.40;;;2.00;;
13366;SDS011;6752;52.612;13.630;2023-12-20T17:08:12;6.33;;;2.17;;
13366;SDS011;6752;52.612;13.630;2023-12-20T17:13:15;8.33;;;3.00;;
13366;SDS011;6752;52.612;13.630;2023-12-20T17:18:17;6.40;;;3.23;;
13366;SDS011;6752;52.612;13.630;2023-12-20T17:23:19;6.60;;;3.17;;
13366;SDS011;6752;52.612;13.630;2023-12-20T17:28:22;7.83;;;3.20;;
13366;SDS011;6752;52.612;13.630;2023-12-20T17:33:24;5.03;;;2.13;;
13366;SDS011;6752;52.612;13.630;2023-12-20T17:38:26;6.13;;;1.90;;
13366;SDS011;6752;52.612;13.630;2023-12-20T17:43:29;4.70;;;2.17;;
13366;SDS011;6752;52.612;13.630;2023-12-20T17:48:31;6.00;;;2.13;;
13366;SDS011;6752;52.612;13.630;2023-12-20T17:53:33;8.00;;;2.53;;
13366;SDS011;6752;52.612;13.630;2023-12-20T17:58:36;4.67;;;1.90;;
13366;SDS011;6752;52.612;13.630;2023-12-20T18:03:38;7.00;;;2.87;;
13366;SDS011;6752;52.612;13.630;2023-12-20T18:08:41;5.77;;;1.97;;
13366;SDS011;6752;52.612;13.630;2023-12-20T18:13:46;7.87;;;2.67;;
13366;SDS011;6752;52.612;13.630;2023-12-20T18:18:48;8.43;;;3.13;;
13366;SDS011;6752;52.612;13.630;2023-12-20T18:23:51;7.23;;;2.47;;
13366;SDS011;6752;52.612;13.630;2023-12-20T18:28:53;9.03;;;2.70;;
13366;SDS011;6752;52.612;13.630;2023-12-20T18:33:55;6.87;;;2.93;;
13366;SDS011;6752;52.612;13.630;2023-12-20T18:38:58;8.67;;;2.53;;
13366;SDS011;6752;52.612;13.630;2023-12-20T18:44:00;8.33;;;2.63;;
13366;SDS011;6752;52.612;13.630;2023-12-20T18:49:02;8.87;;;2.70;;
13366;SDS011;6752;52.612;13.630;2023-12-20T18:54:05;9.18;;;2.90;;
13366;SDS011;6752;52.612;13.630;2023-12-20T18:59:08;9.33;;;2.53;;
13366;SDS011;6752;52.612;13.630;2023-12-20T19:04:10;8.63;;;2.50;;
13366;SDS011;6752;52.612;13.630;2023-12-20T19:09:13;9.00;;;2.17;;
13366;SDS011;6752;52.612;13.630;2023-12-20T19:14:15;9.30;;;2.57;;
13366;SDS011;6752;52.612;13.630;2023-12-20T19:19:18;10.53;;;3.20;;
13366;SDS011;6752;52.612;13.630;2023-12-20T19:24:21;9.37;;;2.70;;
13366;SDS011;6752;52.612;13.630;2023-12-20T19:29:23;8.83;;;2.57;;
13366;SDS011;6752;52.612;13.630;2023-12-20T19:34:26;9.70;;;2.60;;
13366;SDS011;6752;52.612;13.630;2023-12-20T19:39:28;6.90;;;2.17;;
13366;SDS011;6752;52.612;13.630;2023-12-20T19:44:30;10.23;;;2.97;;
13366;SDS011;6752;52.612;13.630;2023-12-20T19:49:33;9.37;;;2.67;;
13366;SDS011;6752;52.612;13.630;2023-12-20T19:54:35;17.37;;;9.03;;
13366;SDS011;6752;52.612;13.630;2023-12-20T19:59:37;8.27;;;2.90;;
13366;SDS011;6752;52.612;13.630;2023-12-20T20:04:40;8.87;;;3.13;;
13366;SDS011;6752;52.612;13.630;2023-12-20T20:09:42;9.57;;;2.57;;
13366;SDS011;6752;52.612;13.630;2023-12-20T20:14:44;7.93;;;3.53;;
13366;SDS011;6752;52.612;13.630;2023-12-20T20:19:47;11.37;;;2.83;;
13366;SDS011;6752;52.612;13.630;2023-12-20T20:24:52;8.50;;;2.90;;
13366;SDS011;6752;52.612;13.630;2023-12-20T20:29:54;9.60;;;4.40;;
13366;SDS011;6752;52.612;13.630;2023-12-20T20:34:57;11.70;;;6.00;;
13366;SDS011;6752;52.612;13.630;2023-12-20T20:39:59;6.33;;;2.73;;
13366;SDS011;6752;52.612;13.630;2023-12-20T20:45:01;7.23;;;2.53;;
13366;SDS011;6752;52.612;13.630;2023-12-20T20:50:04;5.33;;;2.40;;
13366;SDS011;6752;52.612;13.630;2023-12-20T20:55:06;5.77;;;1.77;;
13366;SDS011;6752;52.612;13.630;2023-12-20T21:00:09;6.30;;;2.20;;
13366;SDS011;6752;52.612;13.630;2023-12-20T21:05:11;7.73;;;1.90;;
13366;SDS011;6752;52.612;13.630;2023-12-20T21:10:13;6.43;;;1.80;;
13366;SDS011;6752;52.612;13.630;2023-12-20T21:15:16;7.27;;;2.03;;
13366;SDS011;6752;52.612;13.630;2023-12-20T21:20:26;5.23;;;2.10;;
13366;SDS011;6752;52.612;13.630;2023-12-20T21:25:28;6.03;;;2.00;;
13366;SDS011;6752;52.612;13.630;2023-12-20T21:30:31;8.27;;;2.00;;
13366;SDS011;6752;52.612;13.630;2023-12-20T21:35:33;4.77;;;1.70;;
13366;SDS011;6752;52.612;13.630;2023-12-20T21:40:35;4.93;;;1.73;;
13366;SDS011;6752;52.612;13.630;2023-12-20T21:45:38;5.27;;;1.63;;
13366;SDS011;6752;52.612;13.630;2023-12-20T21:50:40;2.10;;;1.43;;
13366;SDS011;6752;52.612;13.630;2023-12-20T21:55:42;4.97;;;2.47;;
13366;SDS011;6752;52.612;13.630;2023-12-20T22:00:45;4.47;;;1.83;;
13366;SDS011;6752;52.612;13.630;2023-12-20T22:05:47;3.63;;;1.80;;
13366;SDS011;6752;52.612;13.630;2023-12-20T22:10:49;2.97;;;1.77;;
13366;SDS011;6752;52.612;13.630;2023-12-20T22:15:52;4.47;;;1.80;;
13366;SDS011;6752;52.612;13.630;2023-12-20T22:20:54;3.47;;;1.80;;
13366;SDS011;6752;52.612;13.630;2023-12-20T22:25:56;4.03;;;2.20;;
13366;SDS011;6752;52.612;13.630;2023-12-20T22:30:59;3.60;;;1.70;;
13366;SDS011;6752;52.612;13.630;2023-12-20T22:36:01;3.13;;;1.90;;
13366;SDS011;6752;52.612;13.630;2023-12-20T22:41:04;3.27;;;1.70;;
13366;SDS011;6752;52.612;13.630;2023-12-20T22:46:06;4.47;;;2.27;;
13366;SDS011;6752;52.612;13.630;2023-12-20T22:51:08;5.10;;;2.47;;
13366;SDS011;6752;52.612;13.630;2023-12-20T22:56:11;4.23;;;2.30;;
13366;SDS011;6752;52.612;13.630;2023-12-20T23:01:13;4.67;;;2.30;;
13366;SDS011;6752;52.612;13.630;2023-12-20T23:06:15;4.27;;;2.07;;
13366;SDS011;6752;52.612;13.630;2023-12-20T23:11:18;3.77;;;1.77;;
13366;SDS011;6752;52.612;13.630;2023-12-20T23:16:20;5.17;;;2.30;;
13366;SDS011;6752;52.612;13.630;2023-12-20T23:21:22;4.37;;;2.17;;
13366;SDS011;6752;52.612;13.630;2023-12-20T23:26:25;5.43;;;2.40;;
13366;SDS011;6752;52.612;13.630;2023-12-20T23:31:27;4.67;;;2.40;;
13366;SDS011;6752;52.612;13.630;2023-12-20T23:36:29;4.20;;;1.30;;
13366;SDS011;6752;52.612;13.630;2023-12-20T23:41:32;2.20;;;1.13;;
13366;SDS011;6752;52.612;13.630;2023-12-20T23:46:35;3.60;;;1.40;;
13366;SDS011;6752;52.612;13.630;2023-12-20T23:51:37;2.33;;;1.47;;
13366;SDS011;6752;52.612;13.630;2023-12-20T23:56:40;2.83;;;1.40;;
